createdAt,value
2022-12-27T00:00:31.410Z,9.30
2022-12-27T00:01:31.567Z,8.70
2022-12-27T00:02:31.401Z,14.60
2022-12-27T00:03:31.335Z,9.70
2022-12-27T00:04:31.368Z,12.60
2022-12-27T00:05:31.311Z,6.00
2022-12-27T00:06:31.318Z,6.70
2022-12-27T00:07:31.293Z,13.80
2022-12-27T00:08:31.287Z,17.70
2022-12-27T00:09:31.264Z,10.80
2022-12-27T00:10:31.259Z,12.10
2022-12-27T00:11:31.269Z,8.20
2022-12-27T00:12:31.248Z,10.40
2022-12-27T00:13:31.244Z,11.30
2022-12-27T00:14:31.336Z,10.00
2022-12-27T00:15:31.209Z,8.00
2022-12-27T00:16:31.238Z,8.80
2022-12-27T00:17:31.283Z,11.40
2022-12-27T00:18:31.176Z,10.50
2022-12-27T00:19:31.146Z,8.60
2022-12-27T00:20:31.142Z,9.60
2022-12-27T00:21:31.194Z,8.20
2022-12-27T00:22:31.149Z,11.80
2022-12-27T00:23:31.147Z,13.70
2022-12-27T00:24:32.108Z,7.50
2022-12-27T00:25:31.083Z,14.60
2022-12-27T00:26:31.088Z,8.30
2022-12-27T00:27:31.095Z,6.50
2022-12-27T00:28:31.167Z,10.90
2022-12-27T00:29:32.039Z,14.60
2022-12-27T00:30:31.037Z,10.70
2022-12-27T00:31:31.092Z,11.40
2022-12-27T00:32:31.002Z,12.50
2022-12-27T00:33:31.025Z,7.60
2022-12-27T00:34:30.988Z,11.90
2022-12-27T00:35:31.090Z,11.00
2022-12-27T00:36:30.967Z,12.60
2022-12-27T00:37:30.982Z,12.00
2022-12-27T00:38:30.945Z,17.30
2022-12-27T00:39:30.940Z,13.00
2022-12-27T00:40:30.964Z,11.20
2022-12-27T00:41:30.918Z,11.70
2022-12-27T00:42:30.939Z,9.30
2022-12-27T00:43:30.896Z,13.00
2022-12-27T00:44:30.885Z,10.40
2022-12-27T00:45:30.950Z,15.10
2022-12-27T00:46:31.321Z,13.00
2022-12-27T00:47:30.866Z,12.80
2022-12-27T00:48:30.874Z,14.80
2022-12-27T00:49:30.833Z,14.50
2022-12-27T00:50:30.846Z,11.70
2022-12-27T00:51:30.835Z,14.10
2022-12-27T00:52:30.856Z,12.90
2022-12-27T00:53:30.776Z,15.00
2022-12-27T00:54:30.771Z,19.40
2022-12-27T00:55:30.791Z,14.00
2022-12-27T00:56:30.773Z,10.80
2022-12-27T00:57:30.727Z,15.40
2022-12-27T00:58:30.744Z,12.00
2022-12-27T00:59:30.767Z,20.50
2022-12-27T01:00:30.714Z,15.90
2022-12-27T01:01:30.892Z,15.70
2022-12-27T01:02:30.691Z,16.00
2022-12-27T01:03:30.759Z,10.50
2022-12-27T01:04:31.273Z,12.80
2022-12-27T01:05:30.684Z,14.90
2022-12-27T01:06:30.680Z,19.80
2022-12-27T01:07:30.640Z,13.00
2022-12-27T01:08:30.624Z,16.30
2022-12-27T01:09:30.615Z,17.20
2022-12-27T01:10:30.649Z,15.50
2022-12-27T01:11:30.623Z,13.40
2022-12-27T01:12:30.597Z,14.40
2022-12-27T01:13:30.576Z,15.00
2022-12-27T01:14:30.585Z,16.50
2022-12-27T01:15:30.566Z,13.00
2022-12-27T01:16:30.859Z,10.90
2022-12-27T01:17:30.549Z,16.80
2022-12-27T01:18:30.541Z,14.10
2022-12-27T01:19:30.512Z,16.90
2022-12-27T01:20:30.528Z,17.60
2022-12-27T01:21:30.538Z,17.80
2022-12-27T01:22:30.473Z,15.20
2022-12-27T01:23:30.457Z,17.50
2022-12-27T01:24:30.470Z,18.90
2022-12-27T01:25:30.458Z,13.70
2022-12-27T01:26:30.440Z,16.90
2022-12-27T01:27:30.448Z,19.90
2022-12-27T01:28:30.401Z,14.00
2022-12-27T01:29:30.718Z,14.30
2022-12-27T01:30:30.387Z,20.50
2022-12-27T01:31:30.464Z,13.70
2022-12-27T01:32:30.394Z,16.40
2022-12-27T01:33:30.359Z,15.30
2022-12-27T01:34:30.345Z,15.90
2022-12-27T01:35:30.348Z,16.40
2022-12-27T01:36:30.357Z,16.00
2022-12-27T01:37:30.341Z,14.00
2022-12-27T01:38:30.384Z,20.70
2022-12-27T01:39:30.291Z,13.70
2022-12-27T01:40:30.275Z,14.70
2022-12-27T01:41:31.295Z,15.80
2022-12-27T01:42:30.255Z,14.50
2022-12-27T01:43:30.254Z,13.60
2022-12-27T01:44:30.255Z,19.80
2022-12-27T01:45:30.273Z,19.90
2022-12-27T01:46:30.286Z,18.00
2022-12-27T01:47:31.230Z,16.30
2022-12-27T01:48:30.267Z,16.60
2022-12-27T01:49:30.212Z,17.90
2022-12-27T01:50:30.205Z,17.90
2022-12-27T01:51:30.164Z,16.90
2022-12-27T01:52:34.805Z,15.80
2022-12-27T01:53:30.147Z,19.70
2022-12-27T01:54:30.123Z,15.70
2022-12-27T01:55:30.123Z,17.50
2022-12-27T01:56:30.119Z,16.10
2022-12-27T01:57:30.125Z,16.40
2022-12-27T01:58:30.091Z,23.20
2022-12-27T01:59:30.098Z,14.30
2022-12-27T02:00:30.058Z,17.50
2022-12-27T02:01:30.128Z,17.80
2022-12-27T02:02:30.177Z,20.70
2022-12-27T02:03:30.027Z,27.20
2022-12-27T02:04:30.083Z,19.80
2022-12-27T02:05:30.012Z,19.10
2022-12-27T02:06:30.031Z,14.60
2022-12-27T02:07:30.004Z,16.60
2022-12-27T02:08:29.992Z,18.70
2022-12-27T02:09:29.991Z,20.20
2022-12-27T02:10:29.973Z,12.80
2022-12-27T02:11:29.991Z,21.30
2022-12-27T02:12:30.943Z,15.20
2022-12-27T02:13:29.931Z,13.00
2022-12-27T02:14:29.905Z,20.40
2022-12-27T02:15:29.902Z,13.70
2022-12-27T02:16:29.930Z,16.20
2022-12-27T02:17:29.875Z,13.40
2022-12-27T02:18:30.022Z,16.70
2022-12-27T02:19:30.783Z,18.20
2022-12-27T02:20:29.981Z,14.80
2022-12-27T02:21:29.847Z,18.90
2022-12-27T02:22:29.826Z,17.50
2022-12-27T02:23:33.468Z,16.10
2022-12-27T02:24:30.880Z,16.70
2022-12-27T02:25:29.807Z,16.70
2022-12-27T02:26:29.825Z,16.40
2022-12-27T02:27:29.769Z,18.00
2022-12-27T02:28:29.762Z,17.20
2022-12-27T02:29:29.844Z,20.10
2022-12-27T02:30:29.777Z,16.90
2022-12-27T02:31:29.733Z,18.20
2022-12-27T02:32:29.708Z,17.90
2022-12-27T02:33:29.710Z,17.50
2022-12-27T02:34:29.680Z,11.80
2022-12-27T02:35:29.683Z,15.00
2022-12-27T02:36:29.797Z,21.30
2022-12-27T02:37:29.714Z,14.80
2022-12-27T02:38:29.702Z,19.00
2022-12-27T02:39:29.623Z,16.00
2022-12-27T02:40:29.686Z,18.60
2022-12-27T02:41:29.620Z,14.40
2022-12-27T02:42:29.600Z,14.70
2022-12-27T02:43:29.591Z,19.60
2022-12-27T02:44:29.628Z,19.20
2022-12-27T02:45:29.581Z,16.40
2022-12-27T02:46:29.630Z,24.10
2022-12-27T02:47:29.543Z,16.70
2022-12-27T02:48:29.539Z,14.30
2022-12-27T02:49:29.509Z,14.70
2022-12-27T02:50:30.530Z,17.00
2022-12-27T02:51:29.510Z,19.80
2022-12-27T02:52:29.490Z,15.20
2022-12-27T02:53:29.473Z,17.10
2022-12-27T02:54:29.468Z,17.50
2022-12-27T02:55:29.481Z,20.90
2022-12-27T02:56:29.474Z,18.60
2022-12-27T02:57:29.443Z,13.80
2022-12-27T02:58:29.465Z,15.80
2022-12-27T02:59:29.416Z,19.10
2022-12-27T03:00:29.433Z,15.50
2022-12-27T03:01:29.576Z,16.80
2022-12-27T03:02:29.555Z,23.70
2022-12-27T03:03:29.412Z,17.00
2022-12-27T03:04:29.366Z,15.60
2022-12-27T03:05:29.539Z,17.70
2022-12-27T03:06:29.362Z,17.40
2022-12-27T03:07:29.348Z,21.20
2022-12-27T03:08:29.323Z,20.60
2022-12-27T03:09:29.306Z,18.70
2022-12-27T03:10:29.341Z,21.20
2022-12-27T03:11:29.304Z,17.60
2022-12-27T03:12:29.305Z,17.70
2022-12-27T03:13:29.281Z,19.00
2022-12-27T03:14:29.278Z,15.30
2022-12-27T03:15:33.372Z,17.40
2022-12-27T03:16:30.272Z,12.50
2022-12-27T03:17:29.246Z,11.10
2022-12-27T03:18:29.244Z,17.40
2022-12-27T03:19:29.217Z,16.50
2022-12-27T03:20:30.250Z,19.90
2022-12-27T03:21:29.209Z,16.60
2022-12-27T03:22:29.177Z,18.80
2022-12-27T03:23:30.263Z,15.90
2022-12-27T03:24:29.158Z,11.90
2022-12-27T03:25:29.156Z,24.70
2022-12-27T03:26:29.148Z,18.50
2022-12-27T03:27:29.173Z,17.90
2022-12-27T03:28:29.158Z,16.30
2022-12-27T03:29:29.111Z,14.30
2022-12-27T03:30:29.086Z,19.50
2022-12-27T03:31:30.119Z,18.50
2022-12-27T03:32:30.170Z,17.70
2022-12-27T03:33:29.056Z,20.20
2022-12-27T03:34:29.061Z,15.10
2022-12-27T03:35:29.029Z,16.00
2022-12-27T03:36:29.040Z,18.30
2022-12-27T03:37:29.050Z,16.30
2022-12-27T03:38:29.093Z,21.10
2022-12-27T03:39:29.004Z,14.40
2022-12-27T03:40:29.001Z,12.60
2022-12-27T03:41:28.974Z,15.50
2022-12-27T03:42:28.974Z,21.20
2022-12-27T03:43:28.951Z,18.50
2022-12-27T03:44:28.995Z,18.70
2022-12-27T03:45:28.916Z,16.60
2022-12-27T03:46:28.990Z,15.10
2022-12-27T03:47:28.912Z,13.80
2022-12-27T03:48:28.962Z,17.60
2022-12-27T03:49:28.910Z,18.20
2022-12-27T03:50:28.904Z,18.40
2022-12-27T03:51:28.901Z,13.10
2022-12-27T03:52:28.888Z,16.50
2022-12-27T03:53:28.861Z,15.10
2022-12-27T03:54:28.840Z,19.20
2022-12-27T03:55:33.274Z,18.40
2022-12-27T03:56:29.803Z,13.50
2022-12-27T03:57:28.784Z,16.10
2022-12-27T03:58:28.821Z,14.00
2022-12-27T03:59:28.809Z,15.60
2022-12-27T04:00:28.862Z,15.30
2022-12-27T04:01:28.797Z,16.50
2022-12-27T04:02:28.794Z,18.70
2022-12-27T04:03:28.740Z,12.40
2022-12-27T04:04:28.712Z,14.80
2022-12-27T04:05:28.727Z,14.30
2022-12-27T04:06:28.710Z,17.90
2022-12-27T04:07:28.677Z,15.60
2022-12-27T04:08:28.680Z,18.70
2022-12-27T04:09:28.638Z,14.80
2022-12-27T04:10:28.642Z,15.20
2022-12-27T04:11:28.659Z,19.00
2022-12-27T04:12:28.635Z,10.70
2022-12-27T04:13:28.618Z,14.60
2022-12-27T04:14:28.606Z,19.70
2022-12-27T04:15:28.595Z,14.00
2022-12-27T04:16:28.579Z,12.50
2022-12-27T04:17:28.549Z,15.80
2022-12-27T04:18:28.821Z,13.80
2022-12-27T04:19:28.550Z,15.70
2022-12-27T04:20:28.519Z,15.40
2022-12-27T04:21:28.538Z,16.10
2022-12-27T04:22:28.532Z,12.90
2022-12-27T04:23:28.500Z,17.00
2022-12-27T04:24:28.538Z,15.70
2022-12-27T04:25:28.521Z,14.10
2022-12-27T04:26:28.482Z,16.70
2022-12-27T04:27:29.450Z,16.70
2022-12-27T04:28:28.463Z,17.70
2022-12-27T04:29:28.443Z,15.60
2022-12-27T04:30:28.413Z,16.80
2022-12-27T04:31:28.456Z,17.10
2022-12-27T04:32:28.387Z,16.10
2022-12-27T04:33:29.404Z,11.40
2022-12-27T04:34:28.362Z,16.90
2022-12-27T04:35:28.374Z,15.90
2022-12-27T04:36:28.360Z,19.40
2022-12-27T04:37:28.330Z,16.90
2022-12-27T04:38:28.349Z,17.90
2022-12-27T04:39:28.314Z,14.30
2022-12-27T04:40:28.316Z,15.60
2022-12-27T04:41:28.298Z,16.10
2022-12-27T04:42:28.281Z,13.20
2022-12-27T04:44:00.696Z,14.40
2022-12-27T04:44:28.288Z,14.80
2022-12-27T04:45:28.252Z,16.40
2022-12-27T04:46:29.267Z,17.20
2022-12-27T04:47:28.232Z,15.80
2022-12-27T04:48:28.250Z,12.50
2022-12-27T04:49:28.271Z,15.50
2022-12-27T04:50:28.209Z,16.80
2022-12-27T04:51:28.205Z,15.10
2022-12-27T04:52:28.220Z,18.20
2022-12-27T04:53:28.222Z,15.10
2022-12-27T04:54:28.172Z,21.70
2022-12-27T04:55:28.194Z,15.40
2022-12-27T04:56:28.130Z,14.00
2022-12-27T04:57:28.122Z,17.20
2022-12-27T04:58:28.146Z,17.50
2022-12-27T04:59:28.131Z,12.00
2022-12-27T05:00:28.106Z,18.30
2022-12-27T05:01:28.188Z,17.60
2022-12-27T05:02:28.187Z,14.40
2022-12-27T05:03:28.149Z,18.50
2022-12-27T05:04:28.079Z,14.90
2022-12-27T05:05:28.042Z,13.30
2022-12-27T05:06:28.019Z,19.90
2022-12-27T05:07:28.041Z,11.30
2022-12-27T05:08:28.009Z,16.30
2022-12-27T05:09:28.024Z,12.70
2022-12-27T05:10:27.991Z,16.50
2022-12-27T05:11:27.990Z,16.10
2022-12-27T05:12:27.969Z,15.70
2022-12-27T05:13:27.947Z,13.90
2022-12-27T05:14:27.955Z,13.40
2022-12-27T05:15:27.934Z,14.10
2022-12-27T05:16:27.948Z,13.40
2022-12-27T05:17:27.903Z,20.00
2022-12-27T05:18:27.906Z,13.70
2022-12-27T05:19:27.882Z,16.00
2022-12-27T05:20:27.875Z,16.80
2022-12-27T05:21:27.855Z,19.40
2022-12-27T05:22:27.838Z,18.40
2022-12-27T05:23:27.841Z,20.00
2022-12-27T05:24:27.849Z,19.00
2022-12-27T05:25:27.859Z,18.50
2022-12-27T05:26:27.792Z,18.40
2022-12-27T05:27:27.807Z,17.60
2022-12-27T05:28:27.804Z,18.80
2022-12-27T05:29:27.795Z,16.30
2022-12-27T05:30:27.756Z,18.60
2022-12-27T05:31:27.862Z,16.70
2022-12-27T05:32:27.766Z,21.50
2022-12-27T05:33:27.716Z,16.40
2022-12-27T05:34:27.704Z,16.60
2022-12-27T05:35:27.719Z,15.10
2022-12-27T05:36:27.691Z,15.50
2022-12-27T05:37:27.702Z,16.20
2022-12-27T05:38:27.678Z,16.90
2022-12-27T05:39:27.674Z,18.00
2022-12-27T05:40:27.627Z,17.40
2022-12-27T05:41:27.644Z,16.20
2022-12-27T05:42:27.631Z,16.80
2022-12-27T05:43:27.634Z,17.40
2022-12-27T05:44:27.607Z,12.90
2022-12-27T05:45:27.608Z,20.80
2022-12-27T05:46:27.634Z,15.10
2022-12-27T05:47:27.539Z,17.00
2022-12-27T05:48:27.569Z,18.90
2022-12-27T05:49:27.555Z,14.90
2022-12-27T05:50:27.639Z,12.30
2022-12-27T05:51:27.534Z,18.90
2022-12-27T05:52:27.497Z,15.20
2022-12-27T05:53:27.518Z,17.30
2022-12-27T05:54:27.508Z,21.50
2022-12-27T05:55:27.514Z,18.70
2022-12-27T05:56:27.487Z,13.20
2022-12-27T05:57:27.461Z,15.30
2022-12-27T05:58:27.462Z,14.50
2022-12-27T05:59:27.424Z,14.00
2022-12-27T06:00:27.473Z,21.90
2022-12-27T06:01:27.468Z,15.40
2022-12-27T06:02:27.537Z,15.70
2022-12-27T06:03:27.441Z,17.10
2022-12-27T06:04:27.375Z,14.50
2022-12-27T06:05:27.370Z,19.20
2022-12-27T06:06:27.377Z,16.20
2022-12-27T06:07:27.336Z,16.40
2022-12-27T06:08:27.331Z,20.40
2022-12-27T06:09:27.308Z,14.00
2022-12-27T06:10:27.324Z,19.00
2022-12-27T06:11:27.318Z,20.50
2022-12-27T06:12:27.320Z,17.50
2022-12-27T06:13:27.265Z,15.10
2022-12-27T06:14:27.260Z,22.30
2022-12-27T06:15:27.258Z,14.20
2022-12-27T06:16:27.327Z,14.90
2022-12-27T06:17:27.244Z,14.20
2022-12-27T06:18:27.247Z,16.90
2022-12-27T06:19:27.222Z,19.70
2022-12-27T06:20:27.205Z,14.80
2022-12-27T06:21:27.221Z,15.60
2022-12-27T06:22:27.193Z,16.90
2022-12-27T06:23:27.158Z,17.10
2022-12-27T06:24:27.193Z,13.10
2022-12-27T06:25:28.141Z,18.50
2022-12-27T06:26:27.151Z,12.20
2022-12-27T06:27:27.143Z,13.60
2022-12-27T06:28:27.121Z,15.80
2022-12-27T06:29:27.112Z,13.90
2022-12-27T06:30:29.328Z,15.80
2022-12-27T06:31:28.137Z,15.50
2022-12-27T06:32:27.110Z,19.30
2022-12-27T06:33:27.063Z,14.50
2022-12-27T06:34:28.060Z,17.00
2022-12-27T06:35:27.019Z,15.60
2022-12-27T06:36:27.017Z,17.90
2022-12-27T06:37:27.058Z,17.00
2022-12-27T06:38:27.020Z,14.20
2022-12-27T06:39:26.983Z,13.60
2022-12-27T06:40:26.988Z,17.50
2022-12-27T06:41:27.017Z,15.30
2022-12-27T06:42:26.970Z,11.50
2022-12-27T06:43:26.940Z,13.20
2022-12-27T06:44:26.931Z,12.70
2022-12-27T06:45:26.998Z,13.70
2022-12-27T06:46:27.077Z,14.70
2022-12-27T06:47:26.894Z,15.60
2022-12-27T06:48:26.898Z,13.10
2022-12-27T06:49:26.899Z,18.80
2022-12-27T06:50:26.885Z,14.60
2022-12-27T06:51:26.855Z,17.50
2022-12-27T06:52:26.847Z,16.40
2022-12-27T06:53:26.857Z,14.90
2022-12-27T06:54:26.820Z,13.70
2022-12-27T06:55:26.838Z,14.30
2022-12-27T06:56:26.805Z,17.70
2022-12-27T06:57:26.827Z,20.50
2022-12-27T06:58:26.793Z,18.50
2022-12-27T06:59:26.780Z,16.10
2022-12-27T07:00:26.816Z,16.50
2022-12-27T07:01:26.885Z,17.70
2022-12-27T07:02:26.880Z,17.20
2022-12-27T07:03:27.730Z,15.60
2022-12-27T07:04:26.725Z,14.40
2022-12-27T07:05:26.723Z,14.20
2022-12-27T07:06:26.678Z,17.30
2022-12-27T07:07:26.705Z,16.80
2022-12-27T07:08:26.706Z,16.10
2022-12-27T07:09:26.728Z,13.80
2022-12-27T07:10:26.639Z,12.60
2022-12-27T07:11:26.675Z,17.70
2022-12-27T07:12:29.558Z,14.30
2022-12-27T07:13:27.629Z,19.60
2022-12-27T07:14:26.610Z,17.70
2022-12-27T07:15:26.597Z,15.90
2022-12-27T07:16:26.638Z,17.20
2022-12-27T07:17:26.553Z,22.70
2022-12-27T07:18:26.567Z,26.30
2022-12-27T07:19:26.562Z,17.20
2022-12-27T07:20:26.539Z,24.60
2022-12-27T07:21:26.509Z,24.50
2022-12-27T07:22:26.568Z,23.90
2022-12-27T07:23:26.518Z,20.80
2022-12-27T07:24:26.506Z,20.10
2022-12-27T07:25:26.497Z,24.70
2022-12-27T07:26:26.507Z,19.70
2022-12-27T07:27:26.497Z,22.30
2022-12-27T07:28:26.454Z,29.40
2022-12-27T07:29:26.440Z,21.50
2022-12-27T07:30:26.436Z,22.30
2022-12-27T07:31:26.532Z,21.00
2022-12-27T07:32:26.418Z,27.70
2022-12-27T07:33:26.391Z,23.40
2022-12-27T07:34:26.394Z,23.20
2022-12-27T07:35:26.368Z,20.20
2022-12-27T07:36:26.354Z,28.00
2022-12-27T07:37:27.370Z,24.00
2022-12-27T07:38:26.360Z,29.20
2022-12-27T07:39:26.336Z,28.30
2022-12-27T07:40:26.414Z,27.70
2022-12-27T07:41:26.332Z,24.30
2022-12-27T07:42:26.356Z,35.70
2022-12-27T07:43:26.312Z,37.50
2022-12-27T07:44:26.299Z,36.70
2022-12-27T07:45:26.278Z,26.90
2022-12-27T07:46:26.274Z,34.90
2022-12-27T07:47:26.261Z,28.60
2022-12-27T07:48:26.227Z,34.00
2022-12-27T07:49:26.233Z,29.20
2022-12-27T07:50:26.221Z,32.40
2022-12-27T07:51:26.219Z,23.60
2022-12-27T07:52:26.207Z,27.80
2022-12-27T07:53:26.210Z,33.70
2022-12-27T07:54:26.182Z,31.30
2022-12-27T07:55:27.163Z,28.20
2022-12-27T07:56:27.071Z,27.70
2022-12-27T07:57:27.170Z,29.90
2022-12-27T07:58:26.185Z,22.30
2022-12-27T07:59:26.111Z,20.30
2022-12-27T08:00:26.136Z,14.30
2022-12-27T08:01:26.159Z,22.80
2022-12-27T08:02:26.233Z,28.60
2022-12-27T08:03:26.098Z,24.50
2022-12-27T08:04:26.068Z,22.40
2022-12-27T08:05:28.046Z,20.00
2022-12-27T08:06:27.060Z,22.40
2022-12-27T08:07:26.045Z,25.90
2022-12-27T08:08:26.002Z,21.50
2022-12-27T08:09:26.087Z,19.30
2022-12-27T08:10:26.043Z,25.10
2022-12-27T08:11:25.999Z,24.30
2022-12-27T08:12:25.968Z,23.40
2022-12-27T08:13:25.957Z,27.50
2022-12-27T08:14:25.948Z,31.30
2022-12-27T08:15:25.963Z,27.50
2022-12-27T08:16:26.110Z,22.10
2022-12-27T08:17:25.945Z,18.80
2022-12-27T08:18:25.925Z,20.40
2022-12-27T08:19:25.900Z,19.60
2022-12-27T08:20:25.880Z,20.90
2022-12-27T08:21:25.888Z,15.40
2022-12-27T08:22:25.860Z,24.90
2022-12-27T08:23:25.874Z,24.90
2022-12-27T08:24:25.934Z,19.80
2022-12-27T08:25:25.844Z,18.00
2022-12-27T08:26:25.848Z,17.70
2022-12-27T08:27:25.820Z,18.00
2022-12-27T08:28:25.796Z,19.40
2022-12-27T08:29:25.781Z,33.60
2022-12-27T08:30:25.806Z,21.80
2022-12-27T08:31:25.805Z,19.60
2022-12-27T08:32:25.783Z,25.60
2022-12-27T08:33:25.744Z,13.40
2022-12-27T08:34:25.737Z,20.90
2022-12-27T08:35:51.638Z,24.40
2022-12-27T08:36:54.304Z,26.40
2022-12-27T08:37:27.692Z,28.30
2022-12-27T08:38:25.691Z,18.60
2022-12-27T08:39:25.689Z,18.80
2022-12-27T08:40:25.649Z,17.10
2022-12-27T08:41:25.658Z,20.00
2022-12-27T08:42:25.667Z,21.70
2022-12-27T08:43:25.621Z,22.80
2022-12-27T08:44:25.629Z,12.10
2022-12-27T08:45:25.676Z,16.40
2022-12-27T08:46:25.653Z,16.90
2022-12-27T08:47:25.604Z,18.60
2022-12-27T08:48:25.624Z,19.60
2022-12-27T08:49:25.597Z,14.80
2022-12-27T08:50:25.640Z,15.50
2022-12-27T08:51:33.121Z,15.80
2022-12-27T08:52:27.572Z,13.60
2022-12-27T08:53:25.505Z,12.70
2022-12-27T08:54:25.558Z,10.70
2022-12-27T08:55:25.515Z,15.60
2022-12-27T08:56:25.517Z,14.90
2022-12-27T08:57:25.474Z,17.60
2022-12-27T08:58:25.526Z,16.70
2022-12-27T08:59:25.455Z,11.20
2022-12-27T09:00:25.491Z,15.70
2022-12-27T09:01:25.533Z,16.20
2022-12-27T09:02:25.529Z,9.60
2022-12-27T09:03:25.440Z,13.60
2022-12-27T09:04:25.409Z,18.70
2022-12-27T09:05:26.211Z,17.10
2022-12-27T09:06:25.363Z,16.90
2022-12-27T09:07:25.363Z,16.80
2022-12-27T09:08:25.400Z,11.20
2022-12-27T09:09:25.346Z,12.90
2022-12-27T09:10:25.383Z,17.40
2022-12-27T09:11:25.350Z,12.00
2022-12-27T09:12:25.319Z,12.00
2022-12-27T09:13:25.283Z,10.80
2022-12-27T09:14:25.295Z,9.20
2022-12-27T09:15:25.273Z,11.90
2022-12-27T09:16:25.272Z,13.00
2022-12-27T09:17:25.283Z,14.60
2022-12-27T09:18:25.265Z,8.90
2022-12-27T09:19:25.295Z,12.30
2022-12-27T09:20:26.238Z,15.10
2022-12-27T09:21:25.224Z,9.00
2022-12-27T09:22:25.276Z,10.90
2022-12-27T09:23:25.180Z,12.00
2022-12-27T09:24:25.190Z,12.00
2022-12-27T09:25:25.236Z,12.80
2022-12-27T09:26:25.159Z,9.10
2022-12-27T09:27:25.134Z,14.50
2022-12-27T09:28:25.154Z,10.40
2022-12-27T09:29:25.131Z,13.10
2022-12-27T09:30:25.104Z,13.60
2022-12-27T09:31:25.172Z,10.70
2022-12-27T09:32:25.091Z,8.70
2022-12-27T09:33:25.064Z,10.60
2022-12-27T09:34:25.059Z,7.80
2022-12-27T09:35:25.062Z,14.50
2022-12-27T09:36:25.146Z,10.20
2022-12-27T09:37:25.016Z,9.20
2022-12-27T09:38:25.002Z,10.50
2022-12-27T09:39:25.055Z,11.60
2022-12-27T09:40:25.120Z,12.90
2022-12-27T09:42:12.212Z,11.30
2022-12-27T09:42:48.537Z,13.70
2022-12-27T09:43:27.833Z,10.20
2022-12-27T09:44:25.967Z,8.50
2022-12-27T09:45:24.946Z,14.20
2022-12-27T09:46:24.981Z,12.40
2022-12-27T09:47:24.921Z,9.30
2022-12-27T09:48:30.897Z,9.80
2022-12-27T09:49:26.918Z,8.00
2022-12-27T09:50:24.884Z,9.00
2022-12-27T09:51:24.878Z,7.30
2022-12-27T09:52:24.871Z,13.30
2022-12-27T09:53:24.896Z,14.50
2022-12-27T09:54:24.836Z,7.30
2022-12-27T09:55:24.879Z,13.70
2022-12-27T09:56:25.082Z,11.20
2022-12-27T09:57:24.834Z,10.30
2022-12-27T09:58:24.809Z,11.70
2022-12-27T09:59:24.767Z,14.80
2022-12-27T10:00:34.525Z,11.00
2022-12-27T10:01:25.907Z,8.40
2022-12-27T10:02:24.828Z,12.90
2022-12-27T10:03:24.725Z,11.60
2022-12-27T10:04:34.674Z,8.60
2022-12-27T10:05:25.751Z,7.80
2022-12-27T10:06:24.708Z,11.00
2022-12-27T10:07:24.689Z,12.40
2022-12-27T10:08:24.658Z,7.80
2022-12-27T10:09:24.706Z,8.50
2022-12-27T10:10:24.634Z,10.40
2022-12-27T10:11:24.626Z,8.70
2022-12-27T10:12:29.746Z,6.90
2022-12-27T10:13:26.629Z,12.10
2022-12-27T10:14:24.575Z,8.30
2022-12-27T10:15:24.636Z,9.90
2022-12-27T10:16:24.610Z,6.70
2022-12-27T10:17:24.581Z,7.50
2022-12-27T10:18:24.534Z,8.20
2022-12-27T10:19:24.522Z,7.80
2022-12-27T10:20:24.503Z,8.50
2022-12-27T10:21:24.559Z,9.50
2022-12-27T10:22:24.494Z,7.60
2022-12-27T10:23:24.539Z,7.80
2022-12-27T10:24:24.460Z,11.50
2022-12-27T10:25:24.511Z,8.60
2022-12-27T10:26:24.475Z,8.20
2022-12-27T10:27:24.447Z,11.50
2022-12-27T10:28:24.438Z,8.40
2022-12-27T10:29:24.454Z,11.80
2022-12-27T10:30:24.394Z,8.20
2022-12-27T10:31:24.448Z,9.60
2022-12-27T10:32:24.386Z,6.50
2022-12-27T10:33:24.379Z,8.10
2022-12-27T10:34:24.555Z,10.60
2022-12-27T10:35:24.358Z,9.00
2022-12-27T10:36:24.326Z,9.90
2022-12-27T10:37:24.342Z,8.00
2022-12-27T10:38:24.319Z,7.20
2022-12-27T10:39:24.291Z,7.80
2022-12-27T10:40:24.312Z,7.70
2022-12-27T10:41:24.282Z,7.20
2022-12-27T10:42:24.280Z,9.70
2022-12-27T10:43:24.267Z,12.60
2022-12-27T10:44:56.788Z,10.30
2022-12-27T10:45:24.252Z,8.10
2022-12-27T10:46:28.965Z,7.50
2022-12-27T10:47:25.222Z,8.40
2022-12-27T10:48:24.192Z,7.30
2022-12-27T10:49:25.195Z,10.20
2022-12-27T10:50:24.208Z,9.00
2022-12-27T10:51:24.199Z,6.70
2022-12-27T10:52:24.215Z,8.70
2022-12-27T10:53:24.183Z,9.60
2022-12-27T10:54:24.699Z,11.30
2022-12-27T10:55:24.185Z,8.10
2022-12-27T10:56:24.120Z,10.00
2022-12-27T10:57:24.176Z,12.40
2022-12-27T10:58:24.111Z,13.00
2022-12-27T10:59:24.103Z,14.20
2022-12-27T11:00:24.241Z,11.40
2022-12-27T11:01:24.158Z,10.10
2022-12-27T11:02:24.218Z,9.70
2022-12-27T11:03:24.040Z,7.20
2022-12-27T11:04:25.027Z,7.60
2022-12-27T11:05:24.021Z,9.20
2022-12-27T11:06:24.032Z,10.70
2022-12-27T11:07:24.029Z,8.80
2022-12-27T11:08:24.105Z,10.80
2022-12-27T11:09:24.011Z,8.10
2022-12-27T11:10:23.973Z,7.80
2022-12-27T11:11:23.995Z,7.80
2022-12-27T11:12:23.934Z,11.30
2022-12-27T11:13:23.964Z,9.70
2022-12-27T11:14:24.005Z,11.60
2022-12-27T11:15:23.904Z,11.00
2022-12-27T11:16:23.911Z,14.00
2022-12-27T11:17:23.889Z,8.30
2022-12-27T11:18:23.876Z,12.40
2022-12-27T11:19:23.904Z,13.10
2022-12-27T11:20:23.857Z,10.80
2022-12-27T11:21:27.812Z,13.00
2022-12-27T11:22:23.825Z,11.10
2022-12-27T11:23:23.836Z,10.60
2022-12-27T11:24:23.819Z,6.80
2022-12-27T11:25:23.804Z,10.50
2022-12-27T11:26:23.777Z,13.60
2022-12-27T11:27:23.770Z,9.50
2022-12-27T11:28:23.847Z,10.90
2022-12-27T11:29:23.764Z,8.10
2022-12-27T11:30:23.808Z,11.80
2022-12-27T11:31:23.737Z,11.30
2022-12-27T11:32:23.711Z,12.40
2022-12-27T11:33:25.147Z,8.20
2022-12-27T11:34:24.698Z,8.90
2022-12-27T11:35:23.700Z,10.20
2022-12-27T11:36:23.687Z,11.20
2022-12-27T11:37:23.897Z,11.60
2022-12-27T11:38:23.650Z,10.60
2022-12-27T11:39:23.631Z,11.50
2022-12-27T11:40:23.631Z,8.90
2022-12-27T11:41:27.900Z,10.70
2022-12-27T11:42:24.610Z,9.70
2022-12-27T11:43:23.635Z,8.20
2022-12-27T11:44:23.576Z,7.60
2022-12-27T11:45:23.581Z,11.30
2022-12-27T11:46:23.590Z,13.70
2022-12-27T11:47:23.594Z,9.30
2022-12-27T11:48:23.523Z,11.70
2022-12-27T11:49:23.526Z,12.50
2022-12-27T11:50:23.518Z,11.00
2022-12-27T11:51:23.576Z,8.80
2022-12-27T11:52:23.504Z,10.20
2022-12-27T11:53:23.483Z,7.00
2022-12-27T11:54:23.482Z,10.00
2022-12-27T11:55:23.476Z,8.40
2022-12-27T11:56:23.504Z,10.20
2022-12-27T11:57:23.462Z,8.40
2022-12-27T11:58:23.428Z,11.40
2022-12-27T11:59:23.416Z,8.30
2022-12-27T12:00:23.422Z,13.60
2022-12-27T12:01:23.501Z,8.20
2022-12-27T12:02:23.447Z,9.20
2022-12-27T12:03:23.393Z,9.30
2022-12-27T12:04:23.357Z,8.60
2022-12-27T12:05:23.351Z,7.60
2022-12-27T12:06:23.358Z,9.10
2022-12-27T12:07:23.331Z,5.50
2022-12-27T12:08:23.309Z,11.20
2022-12-27T12:09:23.310Z,9.60
2022-12-27T12:10:23.295Z,6.40
2022-12-27T12:11:23.283Z,11.00
2022-12-27T12:12:23.300Z,6.30
2022-12-27T12:13:23.259Z,6.20
2022-12-27T12:14:23.251Z,10.20
2022-12-27T12:15:23.256Z,10.80
2022-12-27T12:16:23.318Z,8.90
2022-12-27T12:17:23.241Z,9.90
2022-12-27T12:18:24.168Z,11.30
2022-12-27T12:19:23.222Z,9.40
2022-12-27T12:20:23.184Z,8.80
2022-12-27T12:21:23.180Z,9.10
2022-12-27T12:22:23.206Z,9.50
2022-12-27T12:23:23.152Z,6.70
2022-12-27T12:24:23.161Z,12.30
2022-12-27T12:25:23.124Z,6.30
2022-12-27T12:26:23.117Z,10.30
2022-12-27T12:27:23.129Z,11.00
2022-12-27T12:28:55.757Z,11.20
2022-12-27T12:29:25.104Z,12.80
2022-12-27T12:30:27.235Z,13.00
2022-12-27T12:31:24.135Z,8.70
2022-12-27T12:32:24.111Z,8.30
2022-12-27T12:33:23.055Z,8.20
2022-12-27T12:34:23.033Z,11.40
2022-12-27T12:35:23.014Z,10.20
2022-12-27T12:36:23.010Z,10.50
2022-12-27T12:37:23.029Z,8.60
2022-12-27T12:38:22.987Z,13.50
2022-12-27T12:39:22.970Z,7.70
2022-12-27T12:40:22.998Z,7.90
2022-12-27T12:41:22.962Z,10.50
2022-12-27T12:42:23.042Z,8.70
2022-12-27T12:43:23.007Z,9.30
2022-12-27T12:44:23.002Z,8.00
2022-12-27T12:45:22.906Z,10.50
2022-12-27T12:46:22.953Z,8.20
2022-12-27T12:47:22.934Z,9.70
2022-12-27T12:48:22.882Z,5.80
2022-12-27T12:49:22.883Z,7.20
2022-12-27T12:50:22.853Z,7.80
2022-12-27T12:51:22.924Z,11.70
2022-12-27T12:52:22.846Z,10.40
2022-12-27T12:53:22.826Z,9.40
2022-12-27T12:54:22.813Z,8.00
2022-12-27T12:55:22.858Z,8.10
2022-12-27T12:56:22.777Z,7.50
2022-12-27T12:57:22.790Z,5.60